createdAt,value
2022-10-21T00:01:54.149Z,0.20
2022-10-21T00:04:21.018Z,0.30
2022-10-21T00:06:48.046Z,0.10
2022-10-21T00:09:15.079Z,0.10
2022-10-21T00:11:42.026Z,0.15
2022-10-21T00:14:09.145Z,0.10
2022-10-21T00:16:36.200Z,0.00
2022-10-21T00:19:03.311Z,0.13
2022-10-21T00:21:30.323Z,0.10
2022-10-21T00:23:57.490Z,0.10
2022-10-21T00:26:24.370Z,0.10
2022-10-21T00:28:56.298Z,0.10
2022-10-21T00:31:23.533Z,0.43
2022-10-21T00:33:50.504Z,0.10
2022-10-21T00:36:17.528Z,0.10
2022-10-21T00:38:45.901Z,0.55
2022-10-21T00:41:13.516Z,0.10
2022-10-21T00:43:59.215Z,0.10
2022-10-21T00:46:34.668Z,0.10
2022-10-21T00:49:02.192Z,0.10
2022-10-21T00:51:29.168Z,0.10
2022-10-21T00:53:56.074Z,0.20
2022-10-21T00:56:28.003Z,0.20
2022-10-21T00:58:55.918Z,0.20
2022-10-21T01:01:23.123Z,0.13
2022-10-21T01:03:50.743Z,0.52
2022-10-21T01:06:20.032Z,0.30
2022-10-21T01:08:47.069Z,0.10
2022-10-21T01:11:15.999Z,0.10
2022-10-21T01:14:13.166Z,0.10
2022-10-21T01:17:20.698Z,0.10
2022-10-21T01:20:11.986Z,0.10
2022-10-21T01:22:47.888Z,0.20
2022-10-21T01:25:25.129Z,0.30
2022-10-21T01:28:16.333Z,0.20
2022-10-21T01:31:07.909Z,0.30
2022-10-21T01:33:45.951Z,0.20
2022-10-21T01:36:49.512Z,0.20
2022-10-21T01:39:29.676Z,0.30
2022-10-21T01:41:56.696Z,0.10
2022-10-21T01:44:29.820Z,0.10
2022-10-21T01:47:02.566Z,0.20
2022-10-21T01:49:38.776Z,0.10
2022-10-21T01:52:05.843Z,0.10
2022-10-21T01:54:38.692Z,0.20
2022-10-21T01:57:05.855Z,0.20
2022-10-21T01:59:32.994Z,0.20
2022-10-21T02:02:00.999Z,0.10
2022-10-21T02:04:27.947Z,0.40
2022-10-21T02:06:54.985Z,0.30
2022-10-21T02:09:22.056Z,0.10
2022-10-21T02:11:49.403Z,0.30
2022-10-21T02:14:45.573Z,0.20
2022-10-21T02:17:14.594Z,0.28
2022-10-21T02:19:41.589Z,0.20
2022-10-21T02:22:08.706Z,0.30
2022-10-21T02:24:54.726Z,0.40
2022-10-21T02:27:22.357Z,0.40
2022-10-21T02:29:49.979Z,0.17
2022-10-21T02:32:26.166Z,0.20
2022-10-21T02:35:14.250Z,0.20
2022-10-21T02:37:59.633Z,0.30
2022-10-21T02:40:28.207Z,0.30
2022-10-21T02:42:58.611Z,0.38
2022-10-21T02:45:26.318Z,0.20
2022-10-21T02:47:53.424Z,0.63
2022-10-21T02:50:20.687Z,0.20
2022-10-21T02:52:47.633Z,0.43
2022-10-21T02:55:14.592Z,0.20
2022-10-21T02:57:41.835Z,0.35
2022-10-21T03:00:09.507Z,0.43
2022-10-21T03:02:36.615Z,0.28
2022-10-21T03:05:03.727Z,0.20
2022-10-21T03:07:30.644Z,0.20
2022-10-21T03:09:57.606Z,1.33
2022-10-21T03:12:24.604Z,0.20
2022-10-21T03:14:52.137Z,0.38
2022-10-21T03:17:21.609Z,0.40
2022-10-21T03:19:51.339Z,0.20
2022-10-21T03:22:18.271Z,0.38
2022-10-21T03:24:45.225Z,0.43
2022-10-21T03:27:12.159Z,0.50
2022-10-21T03:29:39.136Z,0.30
2022-10-21T03:32:06.103Z,0.40
2022-10-21T03:34:33.124Z,1.95
2022-10-21T03:37:00.123Z,1.95
2022-10-21T03:39:27.034Z,1.77
2022-10-21T03:41:53.953Z,3.83
2022-10-21T03:44:20.906Z,3.40
2022-10-21T03:46:48.040Z,4.75
2022-10-21T03:49:20.045Z,5.30
2022-10-21T03:51:48.095Z,5.28
2022-10-21T03:54:15.035Z,4.85
2022-10-21T03:56:41.919Z,5.38
2022-10-21T03:59:08.874Z,5.10
2022-10-21T04:01:36.148Z,5.93
2022-10-21T04:04:03.235Z,4.93
2022-10-21T04:06:30.182Z,4.45
2022-10-21T04:08:57.168Z,4.47
2022-10-21T04:11:24.200Z,4.13
2022-10-21T04:13:51.103Z,4.07
2022-10-21T04:16:19.109Z,4.20
2022-10-21T04:18:46.111Z,3.58
2022-10-21T04:21:13.199Z,4.15
2022-10-21T04:23:40.290Z,3.95
2022-10-21T04:26:07.474Z,3.92
2022-10-21T04:28:34.596Z,3.40
2022-10-21T04:31:01.558Z,3.42
2022-10-21T04:33:28.604Z,3.03
2022-10-21T04:35:58.149Z,3.55
2022-10-21T04:38:25.161Z,3.97
2022-10-21T04:40:59.149Z,3.72
2022-10-21T04:43:26.378Z,4.32
2022-10-21T04:45:53.455Z,3.25
2022-10-21T04:48:20.851Z,3.15
2022-10-21T04:50:52.006Z,3.17
2022-10-21T04:53:19.322Z,4.25
2022-10-21T04:55:46.350Z,3.47
2022-10-21T04:58:13.829Z,3.50
2022-10-21T05:00:41.826Z,3.30
2022-10-21T05:03:08.739Z,3.53
2022-10-21T05:05:35.683Z,3.33
2022-10-21T05:08:02.816Z,2.95
2022-10-21T05:10:30.535Z,2.08
2022-10-21T05:12:57.949Z,2.08
2022-10-21T05:15:25.516Z,2.17
2022-10-21T05:17:53.169Z,2.50
2022-10-21T05:20:20.247Z,2.42
2022-10-21T05:22:49.368Z,2.53
2022-10-21T05:25:16.420Z,2.42
2022-10-21T05:27:43.363Z,2.08
2022-10-21T05:30:10.949Z,2.55
2022-10-21T05:32:38.368Z,2.65
2022-10-21T05:35:06.161Z,3.00
2022-10-21T05:37:33.297Z,2.35
2022-10-21T05:40:00.211Z,2.70
2022-10-21T05:42:27.620Z,2.70
2022-10-21T05:44:54.494Z,2.72
2022-10-21T05:47:23.884Z,2.80
2022-10-21T05:49:51.132Z,2.60
2022-10-21T05:52:18.198Z,3.17
2022-10-21T05:54:46.831Z,2.67
2022-10-21T05:57:14.106Z,3.10
2022-10-21T05:59:41.276Z,3.90
2022-10-21T06:02:09.614Z,3.47
2022-10-21T06:04:38.852Z,4.50
2022-10-21T06:07:06.224Z,3.55
2022-10-21T06:09:33.914Z,3.17
2022-10-21T06:12:00.899Z,3.15
2022-10-21T06:14:27.957Z,3.60
2022-10-21T06:16:54.875Z,3.85
2022-10-21T06:19:21.843Z,3.22
2022-10-21T06:21:48.742Z,2.70
2022-10-21T06:24:15.891Z,3.13
2022-10-21T06:26:42.916Z,2.72
2022-10-21T06:29:10.241Z,2.85
2022-10-21T06:31:37.356Z,2.75
2022-10-21T06:34:04.515Z,2.30
2022-10-21T06:36:31.554Z,2.20
2022-10-21T06:38:58.761Z,2.53
2022-10-21T06:41:25.912Z,3.10
2022-10-21T06:43:53.063Z,1.92
2022-10-21T06:46:20.310Z,1.48
2022-10-21T06:48:47.405Z,1.90
2022-10-21T06:51:19.307Z,1.25
2022-10-21T06:53:47.659Z,1.13
2022-10-21T06:56:16.825Z,1.30
2022-10-21T06:58:46.347Z,1.02
2022-10-21T07:01:27.555Z,1.58
2022-10-21T07:04:01.785Z,1.17
2022-10-21T07:06:28.907Z,2.15
2022-10-21T07:08:59.493Z,1.10
2022-10-21T07:11:27.492Z,0.80
2022-10-21T07:13:54.439Z,1.33
2022-10-21T07:16:26.246Z,1.27
2022-10-21T07:18:53.714Z,0.80
2022-10-21T07:21:21.502Z,1.45
2022-10-21T07:23:51.177Z,0.68
2022-10-21T07:26:19.267Z,1.23
2022-10-21T07:28:47.790Z,0.73
2022-10-21T07:31:18.733Z,0.50
2022-10-21T07:33:45.771Z,0.88
2022-10-21T07:36:15.188Z,1.33
2022-10-21T07:38:46.490Z,1.52
2022-10-21T07:41:21.187Z,2.33
2022-10-21T07:43:48.570Z,0.70
2022-10-21T07:46:15.868Z,1.30
2022-10-21T07:48:42.802Z,0.70
2022-10-21T07:51:12.326Z,0.55
2022-10-21T07:53:39.374Z,0.60
2022-10-21T07:56:17.358Z,0.80
2022-10-21T07:58:44.526Z,0.60
2022-10-21T08:01:13.625Z,0.60
2022-10-21T08:03:42.197Z,0.38
2022-10-21T08:06:10.199Z,0.43
2022-10-21T08:08:37.551Z,0.38
2022-10-21T08:11:05.486Z,0.80
2022-10-21T08:13:32.646Z,0.77
2022-10-21T08:16:00.074Z,0.80
2022-10-21T08:18:28.708Z,0.65
2022-10-21T08:20:55.808Z,0.63
2022-10-21T08:23:23.234Z,0.50
2022-10-21T08:25:52.050Z,0.70
2022-10-21T08:28:19.252Z,0.52
2022-10-21T08:30:46.372Z,0.60
2022-10-21T08:33:13.638Z,0.70
2022-10-21T08:35:40.688Z,0.95
2022-10-21T08:40:46.483Z,0.45
2022-10-21T08:43:19.644Z,0.90
2022-10-21T08:45:51.336Z,0.95
2022-10-21T08:48:26.438Z,0.17
2022-10-21T08:50:53.351Z,0.30
2022-10-21T08:53:37.501Z,0.17
2022-10-21T08:56:06.905Z,0.32
2022-10-21T08:58:40.885Z,0.17
2022-10-21T09:01:35.522Z,0.20
2022-10-21T09:04:05.370Z,0.40
2022-10-21T09:07:04.573Z,0.10
2022-10-21T09:09:53.118Z,0.20
2022-10-21T09:12:29.793Z,0.10
2022-10-21T09:15:25.571Z,0.43
2022-10-21T09:18:15.399Z,0.10
2022-10-21T09:21:06.906Z,0.20
2022-10-21T09:23:43.031Z,0.38
2022-10-21T09:26:19.006Z,0.30
2022-10-21T09:28:46.549Z,0.70
2022-10-21T09:31:18.325Z,0.30
2022-10-21T09:33:57.388Z,0.68
2022-10-21T09:36:27.042Z,0.40
2022-10-21T09:39:01.135Z,0.40
2022-10-21T09:41:31.599Z,0.30
2022-10-21T09:43:58.725Z,1.00
2022-10-21T09:46:25.794Z,0.32
2022-10-21T09:49:23.184Z,0.95
2022-10-21T09:51:42.554Z,0.30
2022-10-21T09:54:20.745Z,0.30
2022-10-21T09:56:59.003Z,1.02
2022-10-21T09:59:30.354Z,0.20
2022-10-21T10:02:05.876Z,0.30
2022-10-21T10:04:34.803Z,0.45
2022-10-21T10:07:04.199Z,0.40
2022-10-21T10:09:34.488Z,0.32
2022-10-21T10:12:20.446Z,0.13
2022-10-21T10:14:47.745Z,0.52
2022-10-21T10:17:23.937Z,0.17
2022-10-21T10:22:43.529Z,0.22
2022-10-21T10:25:22.803Z,0.13
2022-10-21T10:27:54.468Z,0.43
2022-10-21T10:30:22.583Z,0.20
2022-10-21T10:32:53.217Z,0.75
2022-10-21T10:35:28.676Z,0.25
2022-10-21T10:37:58.491Z,0.32
2022-10-21T10:40:28.738Z,0.10
2022-10-21T10:43:06.337Z,0.30
2022-10-21T10:45:33.327Z,0.10
2022-10-21T10:48:03.351Z,0.13
2022-10-21T10:50:47.719Z,0.43
2022-10-21T10:53:34.552Z,0.22
2022-10-21T10:56:29.756Z,0.20
2022-10-21T10:59:17.314Z,0.28
2022-10-21T11:01:53.851Z,0.22
2022-10-21T11:04:34.200Z,0.20
2022-10-21T11:07:23.970Z,0.13
2022-10-21T11:09:52.803Z,0.32
2022-10-21T11:12:23.592Z,0.38
2022-10-21T11:14:51.778Z,0.20
2022-10-21T11:17:20.313Z,0.57
2022-10-21T11:20:01.786Z,0.20
2022-10-21T11:22:46.913Z,0.82
2022-10-21T11:25:23.439Z,0.20
2022-10-21T11:28:12.258Z,1.02
2022-10-21T11:30:48.806Z,0.20
2022-10-21T11:33:37.782Z,0.73
2022-10-21T11:36:49.424Z,0.30
2022-10-21T11:39:54.382Z,0.30
2022-10-21T11:42:49.036Z,0.20
2022-10-21T11:45:24.883Z,0.20
2022-10-21T11:50:37.958Z,0.47
2022-10-21T11:53:17.136Z,0.60
2022-10-21T11:55:47.221Z,0.20
2022-10-21T11:58:29.858Z,0.40
2022-10-21T12:01:12.728Z,0.43
2022-10-21T12:03:44.286Z,0.52
2022-10-21T12:06:17.351Z,0.68
2022-10-21T12:08:59.757Z,1.02
2022-10-21T12:11:33.622Z,1.05
2022-10-21T12:14:15.733Z,0.80
2022-10-21T12:16:42.590Z,0.47
2022-10-21T12:19:10.585Z,0.85
2022-10-21T12:21:38.738Z,0.68
2022-10-21T12:24:46.531Z,0.45
2022-10-21T12:27:13.470Z,0.63
2022-10-21T12:30:06.077Z,0.30
2022-10-21T12:32:51.746Z,0.52
2022-10-21T12:35:40.724Z,1.00
2022-10-21T12:38:20.293Z,1.15
2022-10-21T12:40:48.376Z,0.60
2022-10-21T12:43:19.867Z,0.47
2022-10-21T12:45:46.875Z,0.35
2022-10-21T12:48:43.720Z,0.85
2022-10-21T12:51:32.157Z,0.32
2022-10-21T12:54:15.195Z,0.57
2022-10-21T12:56:48.969Z,0.50
2022-10-21T12:59:37.819Z,0.85
2022-10-21T13:02:04.869Z,0.60
2022-10-21T13:04:31.860Z,0.20
2022-10-21T13:07:00.039Z,0.32
2022-10-21T13:09:30.824Z,0.40
2022-10-21T13:12:08.450Z,0.77
2022-10-21T13:17:23.711Z,0.50
2022-10-21T13:19:57.471Z,0.98
2022-10-21T13:22:40.562Z,0.57
2022-10-21T13:25:25.756Z,0.10
2022-10-21T13:27:59.377Z,0.47
2022-10-21T13:30:36.532Z,1.48
2022-10-21T13:33:19.517Z,0.32
2022-10-21T13:36:02.675Z,0.65
2022-10-21T13:38:29.656Z,0.77
2022-10-21T13:41:02.874Z,0.55
2022-10-21T13:43:40.372Z,0.70
2022-10-21T13:46:31.015Z,0.57
2022-10-21T13:49:01.566Z,0.40
2022-10-21T13:51:33.322Z,0.50
2022-10-21T13:54:11.219Z,1.17
2022-10-21T13:56:38.418Z,0.77
2022-10-21T13:59:06.647Z,0.95
2022-10-21T14:01:47.858Z,1.33
2022-10-21T14:04:25.931Z,0.80
2022-10-21T14:07:03.480Z,1.00
2022-10-21T14:09:35.436Z,0.75
2022-10-21T14:12:04.795Z,0.70
2022-10-21T14:14:32.530Z,0.57
2022-10-21T14:17:01.277Z,0.75
2022-10-21T14:19:30.262Z,1.40
2022-10-21T14:21:58.635Z,0.85
2022-10-21T14:24:45.816Z,0.70
2022-10-21T14:27:21.435Z,0.85
2022-10-21T14:29:48.514Z,0.77
2022-10-21T14:32:16.572Z,0.47
2022-10-21T14:35:13.036Z,0.38
2022-10-21T14:37:48.100Z,0.52
2022-10-21T14:40:26.655Z,0.50
2022-10-21T14:42:55.058Z,0.73
2022-10-21T14:45:30.546Z,0.30
2022-10-21T14:48:10.811Z,0.50
2022-10-21T14:50:38.952Z,0.52
2022-10-21T14:53:24.263Z,0.50
2022-10-21T14:55:57.991Z,0.88
2022-10-21T14:58:28.511Z,1.05
2022-10-21T15:00:57.227Z,0.32
2022-10-21T15:03:40.404Z,0.60
2022-10-21T15:06:21.068Z,0.80
2022-10-21T15:08:57.616Z,0.85
2022-10-21T15:11:28.962Z,1.10
2022-10-21T15:13:56.880Z,0.77
2022-10-21T15:16:28.423Z,0.65
2022-10-21T15:18:55.563Z,0.73
2022-10-21T15:21:35.344Z,0.55
2022-10-21T15:24:02.436Z,0.63
2022-10-21T15:26:38.546Z,0.80
2022-10-21T15:29:22.980Z,0.70
2022-10-21T15:31:50.139Z,0.75
2022-10-21T15:34:17.068Z,0.57
2022-10-21T15:36:44.239Z,0.60
2022-10-21T15:39:11.342Z,0.60
2022-10-21T15:41:38.292Z,0.45
2022-10-21T15:44:21.966Z,0.68
2022-10-21T15:46:50.383Z,0.35
2022-10-21T15:49:22.421Z,0.30
2022-10-21T15:51:49.741Z,0.40
2022-10-21T15:54:17.199Z,0.68
2022-10-21T15:56:44.823Z,0.40
2022-10-21T15:59:21.361Z,0.30
2022-10-21T16:01:48.619Z,0.60
2022-10-21T16:04:15.813Z,0.40
2022-10-21T16:06:47.786Z,0.20
2022-10-21T16:09:19.853Z,0.60
2022-10-21T16:11:58.863Z,0.38
2022-10-21T16:14:29.878Z,0.32
2022-10-21T16:17:00.574Z,0.25
2022-10-21T16:19:27.995Z,0.20
2022-10-21T16:21:55.278Z,0.20
2022-10-21T16:24:22.303Z,0.90
2022-10-21T16:26:49.734Z,0.40
2022-10-21T16:29:26.554Z,0.20
2022-10-21T16:31:53.723Z,0.28
2022-10-21T16:34:21.111Z,0.82
2022-10-21T16:36:48.015Z,0.75
2022-10-21T16:39:22.184Z,1.30
2022-10-21T16:41:49.267Z,0.40
2022-10-21T16:44:16.307Z,0.40
2022-10-21T16:46:52.626Z,0.60
2022-10-21T16:51:52.617Z,0.43
2022-10-21T16:54:21.958Z,0.40
2022-10-21T16:56:51.010Z,0.30
2022-10-21T16:59:20.320Z,0.52
2022-10-21T17:01:47.287Z,0.57
2022-10-21T17:04:14.513Z,0.85
2022-10-21T17:06:41.557Z,0.77
2022-10-21T17:09:09.114Z,1.05
2022-10-21T17:11:39.863Z,0.45
2022-10-21T17:14:07.941Z,1.23
2022-10-21T17:16:34.942Z,0.40
2022-10-21T17:19:02.823Z,0.63
2022-10-21T17:21:31.278Z,0.38
2022-10-21T17:23:58.848Z,0.35
2022-10-21T17:26:25.808Z,0.63
2022-10-21T17:28:54.563Z,0.85
2022-10-21T17:31:25.873Z,0.60
2022-10-21T17:33:53.432Z,0.52
2022-10-21T17:36:20.723Z,0.55
2022-10-21T17:38:47.872Z,0.50
2022-10-21T17:41:16.287Z,0.63
2022-10-21T17:43:43.288Z,0.85
2022-10-21T17:46:14.943Z,0.98
2022-10-21T17:48:42.176Z,0.30
2022-10-21T17:51:09.292Z,0.50
2022-10-21T17:53:37.421Z,0.20
2022-10-21T17:56:06.433Z,0.17
2022-10-21T17:58:35.967Z,1.33
2022-10-21T18:01:08.627Z,0.52
2022-10-21T18:03:35.865Z,0.50
2022-10-21T18:06:10.365Z,0.45
2022-10-21T18:08:37.730Z,0.40
2022-10-21T18:11:13.355Z,0.85
2022-10-21T18:13:40.615Z,0.20
2022-10-21T18:16:09.553Z,0.10
2022-10-21T18:18:36.760Z,0.17
2022-10-21T18:21:14.527Z,0.60
2022-10-21T18:23:42.274Z,0.45
2022-10-21T18:26:30.759Z,0.65
2022-10-21T18:29:02.465Z,0.40
2022-10-21T18:31:32.017Z,0.57
2022-10-21T18:34:07.455Z,0.95
2022-10-21T18:36:34.501Z,1.27
2022-10-21T18:39:01.660Z,0.77
2022-10-21T18:41:30.535Z,0.77
2022-10-21T18:44:04.595Z,0.80
2022-10-21T18:46:31.820Z,0.55
2022-10-21T18:48:58.964Z,0.20
2022-10-21T18:51:25.950Z,0.60
2022-10-21T18:53:53.422Z,0.28
2022-10-21T18:56:22.208Z,0.22
2022-10-21T18:58:49.852Z,0.40
2022-10-21T19:01:17.158Z,0.60
2022-10-21T19:03:46.021Z,0.50
2022-10-21T19:06:37.314Z,0.80
2022-10-21T19:09:13.331Z,0.70
2022-10-21T19:11:41.034Z,0.20
2022-10-21T19:14:11.216Z,0.28
2022-10-21T19:16:43.992Z,0.10
2022-10-21T19:19:12.060Z,0.20
2022-10-21T19:21:39.662Z,0.20
2022-10-21T19:24:06.914Z,1.40
2022-10-21T19:26:37.057Z,0.20
2022-10-21T19:29:16.187Z,0.55
2022-10-21T19:31:43.473Z,0.52
2022-10-21T19:34:14.916Z,0.20
2022-10-21T19:36:42.074Z,0.20
2022-10-21T19:39:09.066Z,0.10
2022-10-21T19:41:36.035Z,0.85
2022-10-21T19:44:03.088Z,0.35
2022-10-21T19:46:31.360Z,1.00
2022-10-21T19:49:00.331Z,0.50
2022-10-21T19:51:27.858Z,0.10
2022-10-21T19:53:54.967Z,0.28
2022-10-21T19:56:26.238Z,0.32
2022-10-21T19:58:55.074Z,0.30
2022-10-21T20:01:23.670Z,1.10
2022-10-21T20:03:51.062Z,0.20
2022-10-21T20:06:22.120Z,0.50
2022-10-21T20:08:49.299Z,0.50
2022-10-21T20:11:18.207Z,0.45
2022-10-21T20:13:45.659Z,0.22
2022-10-21T20:16:16.815Z,0.20
2022-10-21T20:18:43.909Z,0.20
2022-10-21T20:21:10.882Z,0.10
2022-10-21T20:23:37.849Z,0.60
2022-10-21T20:26:06.145Z,0.20
2022-10-21T20:28:33.151Z,0.20
2022-10-21T20:31:03.901Z,0.30
2022-10-21T20:33:32.078Z,0.20
2022-10-21T20:36:05.988Z,1.13
2022-10-21T20:38:33.579Z,0.10
2022-10-21T20:41:02.898Z,0.40
2022-10-21T20:43:30.194Z,0.30
2022-10-21T20:46:00.556Z,0.30
2022-10-21T20:48:28.196Z,0.15
2022-10-21T20:51:05.757Z,0.10
2022-10-21T20:53:35.036Z,0.32
2022-10-21T20:56:03.582Z,0.10
2022-10-21T20:58:34.739Z,0.25
2022-10-21T21:01:18.259Z,0.20
2022-10-21T21:03:45.678Z,0.43
2022-10-21T21:06:13.078Z,0.25
2022-10-21T21:08:48.635Z,0.20
2022-10-21T21:11:20.743Z,0.95
2022-10-21T21:13:47.800Z,0.10
2022-10-21T21:16:21.574Z,0.08
2022-10-21T21:18:59.394Z,0.10
2022-10-21T21:21:27.291Z,0.30
2022-10-21T21:23:54.695Z,0.35
2022-10-21T21:26:32.610Z,0.43
2022-10-21T21:29:00.553Z,0.50
2022-10-21T21:31:30.619Z,0.25
2022-10-21T21:33:57.735Z,0.43
2022-10-21T21:36:25.183Z,0.73
2022-10-21T21:38:53.975Z,0.55
2022-10-21T21:41:24.976Z,0.60
2022-10-21T21:43:52.967Z,0.20
2022-10-21T21:46:24.176Z,0.10
2022-10-21T21:49:04.699Z,0.52
2022-10-21T21:51:32.558Z,0.25
2022-10-21T21:53:59.639Z,0.52
2022-10-21T21:56:26.814Z,0.60
2022-10-21T21:58:58.188Z,0.30
2022-10-21T22:01:27.402Z,0.10
2022-10-21T22:03:54.880Z,0.35
2022-10-21T22:06:23.422Z,0.40
2022-10-21T22:08:50.683Z,0.50
2022-10-21T22:11:20.945Z,0.35
2022-10-21T22:13:47.977Z,0.22
2022-10-21T22:16:16.029Z,0.30
2022-10-21T22:18:43.802Z,0.95
2022-10-21T22:21:13.454Z,0.50
2022-10-21T22:23:48.079Z,0.30
2022-10-21T22:26:15.635Z,0.30
2022-10-21T22:28:42.833Z,0.10
2022-10-21T22:31:12.273Z,0.25
2022-10-21T22:33:39.683Z,0.10
2022-10-21T22:36:06.937Z,0.15
2022-10-21T22:38:33.955Z,0.45
2022-10-21T22:41:01.976Z,0.40
2022-10-21T22:43:29.386Z,0.65
2022-10-21T22:46:04.974Z,0.20
2022-10-21T22:48:42.438Z,0.30
2022-10-21T22:51:09.539Z,0.65
2022-10-21T22:53:36.800Z,0.28
2022-10-21T22:56:04.043Z,0.65
2022-10-21T22:58:31.086Z,0.47
2022-10-21T23:00:58.054Z,0.60
2022-10-21T23:03:25.343Z,0.63
2022-10-21T23:05:52.597Z,0.50
2022-10-21T23:08:19.828Z,0.80
2022-10-21T23:10:49.886Z,0.70
2022-10-21T23:13:20.230Z,0.28
2022-10-21T23:15:47.810Z,0.28
2022-10-21T23:18:14.805Z,0.57
2022-10-21T23:20:41.985Z,0.52
2022-10-21T23:23:09.690Z,0.30
2022-10-21T23:25:36.833Z,0.65
2022-10-21T23:28:04.675Z,0.25
2022-10-21T23:30:31.638Z,0.30
2022-10-21T23:32:58.708Z,0.45
2022-10-21T23:35:25.638Z,0.50
2022-10-21T23:37:52.576Z,0.20
2022-10-21T23:40:19.617Z,0.30
2022-10-21T23:42:46.741Z,0.20
2022-10-21T23:45:13.709Z,0.10
2022-10-21T23:47:40.847Z,0.25
2022-10-21T23:50:08.441Z,0.25
2022-10-21T23:52:36.070Z,0.32
2022-10-21T23:55:05.223Z,0.63
2022-10-21T23:57:32.299Z,0.05
2022-10-21T23:59:59.231Z,0.10
